Wednesday, October 18, 2017, 3:42 AM EDT
Back to Local

KSNC, Chester, Chester Airport

Location: Chester, CT, United States Lat: 41.384
Local Time: 3:42 AM EDT ( 7:42 GMT) Lon: -72.506
Time Zone: US/Eastern Elev: 416 ft

Show me the last for .
Show Decoded

2017-10-18 03:35 METAR KSNC 180735Z AUTO 24005G10KT 10SM CLR 09/03 A3023 RMK AO2 =
2017-10-18 03:15 METAR KSNC 180715Z AUTO VRB05G10KT 10SM CLR 09/03 A3023 RMK AO2 =
2017-10-18 02:55 METAR KSNC 180655Z AUTO 24008KT 10SM CLR 10/03 A3024 RMK AO2 =
2017-10-18 02:35 METAR KSNC 180635Z AUTO 26006G12KT 10SM CLR 10/03 A3024 RMK AO2 =
2017-10-18 02:15 METAR KSNC 180615Z AUTO VRB06KT 10SM CLR 10/04 A3025 RMK AO2 =
2017-10-18 01:55 METAR KSNC 180555Z AUTO 25006KT 10SM CLR 09/05 A3025 RMK AO2 =
2017-10-18 01:35 METAR KSNC 180535Z AUTO 24005KT 10SM CLR 09/05 A3025 RMK AO2 =
2017-10-18 01:15 METAR KSNC 180515Z AUTO 24003KT 10SM CLR 10/05 A3026 RMK AO2 =
2017-10-18 00:55 METAR KSNC 180455Z AUTO 24004KT 10SM CLR 09/05 A3026 RMK AO2 =
2017-10-18 00:35 METAR KSNC 180435Z AUTO 24003KT 10SM CLR 09/06 A3026 RMK AO2 =
2017-10-18 00:15 METAR KSNC 180415Z AUTO 23003KT 10SM CLR 10/05 A3026 RMK AO2 =
2017-10-17 23:55 METAR KSNC 180355Z AUTO VRB04KT 10SM CLR 10/05 A3026 RMK AO2 =
2017-10-17 23:35 METAR KSNC 180335Z AUTO 23005KT 10SM CLR 10/05 A3027 RMK AO2 =
2017-10-17 23:15 METAR KSNC 180315Z AUTO 22004KT 10SM CLR 09/05 A3027 RMK AO2 =
2017-10-17 22:55 METAR KSNC 180255Z AUTO 22004KT 10SM CLR 09/05 A3027 RMK AO2 =
2017-10-17 22:35 METAR KSNC 180235Z AUTO 21004KT 10SM CLR 09/05 A3027 RMK AO2 =
2017-10-17 22:15 METAR KSNC 180215Z AUTO 22003KT 10SM CLR 08/05 A3028 RMK AO2 =
2017-10-17 21:55 METAR KSNC 180155Z AUTO 21003KT 10SM CLR 09/04 A3027 RMK AO2 =
2017-10-17 21:35 METAR KSNC 180135Z AUTO VRB04KT 10SM CLR 09/04 A3027 RMK AO2 =
2017-10-17 21:15 METAR KSNC 180115Z AUTO 21004KT 10SM CLR 09/03 A3027 RMK AO2 =
2017-10-17 20:55 METAR KSNC 180055Z AUTO 21004KT 10SM CLR 10/03 A3027 RMK AO2 =
2017-10-17 20:35 METAR KSNC 180035Z AUTO 20005KT 10SM CLR 10/02 A3026 RMK AO2 =
2017-10-17 20:15 METAR KSNC 180015Z AUTO 21006KT 10SM CLR 09/03 A3026 RMK AO2 =
2017-10-17 19:55 METAR KSNC 172355Z AUTO 21005KT 10SM CLR 09/03 A3026 RMK AO2 =
2017-10-17 19:35 METAR KSNC 172335Z AUTO 23004KT 10SM CLR 08/04 A3026 RMK AO2 =
2017-10-17 19:15 METAR KSNC 172315Z AUTO 00000KT 10SM CLR 09/03 A3026 RMK AO2 =
2017-10-17 18:55 METAR KSNC 172255Z AUTO 20003KT 10SM CLR 09/03 A3026 RMK AO2 =
2017-10-17 18:35 METAR KSNC 172235Z AUTO 22003KT 10SM CLR 09/03 A3025 RMK AO2 =
2017-10-17 18:15 METAR KSNC 172215Z AUTO 23003KT 10SM CLR 10/03 A3025 RMK AO2 =
2017-10-17 17:55 METAR KSNC 172155Z AUTO 22005KT 10SM CLR 11/03 A3024 RMK AO2 =
2017-10-17 17:35 METAR KSNC 172135Z AUTO VRB03KT 10SM CLR 12/03 A3024 RMK AO2 =
2017-10-17 17:15 METAR KSNC 172115Z AUTO 22005KT 10SM CLR 13/02 A3024 RMK AO2 =
2017-10-17 16:55 METAR KSNC 172055Z AUTO 21006KT 10SM CLR 13/02 A3024 RMK AO2 =
2017-10-17 16:35 METAR KSNC 172035Z AUTO 22005KT 10SM CLR 15/01 A3024 RMK AO2 =
2017-10-17 15:35 METAR KSNC 171935Z AUTO VRB04KT 10SM CLR 15/M03 A3025 RMK AO2 =
2017-10-17 15:15 METAR KSNC 171915Z AUTO 00000KT 10SM CLR 15/M04 A3025 RMK AO2 =
2017-10-17 14:55 METAR KSNC 171855Z AUTO 00000KT 10SM CLR 15/M04 A3026 RMK AO2 =
2017-10-17 14:35 METAR KSNC 171835Z AUTO VRB04KT 9SM CLR 14/M04 A3026 RMK AO2 =
2017-10-17 14:15 METAR KSNC 171815Z AUTO 35003KT 10SM CLR 14/M04 A3026 RMK AO2 =
2017-10-17 13:55 METAR KSNC 171755Z AUTO 00000KT 10SM CLR 14/M03 A3027 RMK AO2 =
2017-10-17 13:35 METAR KSNC 171735Z AUTO 03004KT 10SM CLR 14/M02 A3027 RMK AO2 =
2017-10-17 13:15 METAR KSNC 171715Z AUTO 00000KT 10SM CLR 13/M03 A3028 RMK AO2 =
2017-10-17 12:55 METAR KSNC 171655Z AUTO 30003KT 10SM CLR 13/M02 A3028 RMK AO2 =
2017-10-17 12:35 METAR KSNC 171635Z AUTO VRB06KT 10SM CLR 12/M03 A3029 RMK AO2 =
2017-10-17 12:15 METAR KSNC 171615Z AUTO 03005KT 10SM CLR 12/M02 A3029 RMK AO2 =
2017-10-17 11:55 METAR KSNC 171555Z AUTO 00000KT 10SM CLR 11/M02 A3029 RMK AO2 =
2017-10-17 11:35 METAR KSNC 171535Z AUTO 32007KT 240V350 9SM CLR 11/M02 A3030 RMK AO2 =
2017-10-17 11:15 METAR KSNC 171515Z AUTO 32005KT 10SM CLR 10/M01 A3030 RMK AO2 =
2017-10-17 10:55 METAR KSNC 171455Z AUTO VRB05KT 10SM CLR 10/M01 A3030 RMK AO2 =
2017-10-17 10:35 METAR KSNC 171435Z AUTO 33008KT 10SM CLR 10/M01 A3031 RMK AO2 =
2017-10-17 10:15 METAR KSNC 171415Z AUTO 35007KT 10SM CLR 10/M01 A3031 RMK AO2 =
2017-10-17 09:55 METAR KSNC 171355Z AUTO 36008G13KT 10SM CLR 09/M01 A3031 RMK AO2 =
2017-10-17 09:35 METAR KSNC 171335Z AUTO 36006KT 10SM CLR 08/M00 A3032 RMK AO2 =
2017-10-17 09:15 METAR KSNC 171315Z AUTO 34009KT 10SM CLR 07/M00 A3032 RMK AO2 =
2017-10-17 08:55 METAR KSNC 171255Z AUTO 01008KT 10SM CLR 07/00 A3032 RMK AO2 =
2017-10-17 08:35 METAR KSNC 171235Z AUTO 34004KT 10SM CLR 06/01 A3031 RMK AO2 =
2017-10-17 08:15 METAR KSNC 171215Z AUTO VRB05KT 10SM CLR 05/01 A3031 RMK AO2 =
2017-10-17 07:55 METAR KSNC 171155Z AUTO 33004KT 10SM CLR 04/01 A3030 RMK AO2 =
2017-10-17 07:35 METAR KSNC 171135Z AUTO 33004KT 10SM CLR 03/01 A3029 RMK AO2 =
2017-10-17 07:15 METAR KSNC 171115Z AUTO 32005KT 10SM -UP CLR 02/01 A3028 RMK AO2 =
2017-10-17 06:55 METAR KSNC 171055Z AUTO 32006KT 10SM CLR 02/01 A3028 RMK AO2 =
2017-10-17 06:35 METAR KSNC 171035Z AUTO 31004KT 10SM CLR 02/01 A3027 RMK AO2 =
2017-10-17 06:15 METAR KSNC 171015Z AUTO 00000KT 10SM CLR 02/01 A3026 RMK AO2 =
2017-10-17 05:55 METAR KSNC 170955Z AUTO 31004KT 10SM CLR 03/01 A3025 RMK AO2 =
2017-10-17 05:35 METAR KSNC 170935Z AUTO 33003KT 10SM CLR 03/01 A3025 RMK AO2 =
2017-10-17 05:15 METAR KSNC 170915Z AUTO 00000KT 10SM CLR 03/01 A3024 RMK AO2 =
2017-10-17 04:55 METAR KSNC 170855Z AUTO 00000KT 10SM CLR 03/01 A3023 RMK AO2 =
2017-10-17 04:35 METAR KSNC 170835Z AUTO 34004KT 10SM CLR 04/01 A3023 RMK AO2 =
2017-10-17 04:15 METAR KSNC 170815Z AUTO 34006KT 10SM CLR 04/01 A3022 RMK AO2 =
2017-10-17 03:55 METAR KSNC 170755Z AUTO 34005KT 10SM CLR 04/01 A3022 RMK AO2 =

Support USWX by starting your Amazon purchase here.